»·PEaware :: HAG11K KSNA-L88

HAG11K :: KSNA-L88

FLIGHT INFORMATION

Flight Status: Arrived
Operator: Unknown
More flights by this operator :: More flights under this callsign
Pilot: Alex K. (14822)
Aircraft: PIPER PA-31/31P NAVAJO CHIEFTAIN
(PA31)
More flights by this aircraft type
Origin: KSNA John Wayne-Orange Co
United States
Destination: L88 New Cuyama
United States
More flights between these airports :: More routes between these airports
Route:
File this flight plan on PilotEdge
Remarks: Callsign "Hageland", Hageland Aviation Services (AK)
Altitude:
(Current/Filed)
6,500ft
Speed:
(Current/Filed)
190kts
Departed: 02-Apr-18 06:27 PM
Arrived: 02-Apr-18 07:17 PM
Distance/Time
Traveled:
118nm/0:50
Distance/Time
To Go:
Arrived

Flight Plot

Page will automatically refresh every two minutes.

Flight plan parsing failed; only flown route is shown


Map Options




Map Legend


Flown Route
Filed Route
Departure Airport
Arrival Airport
Navaid (VOR, NDB)
Fix

Horizontal Profiles

Position Reports

Time Latitude Longitude Heading Altitude Ground
Speed
02-Apr-18 18:16 33.665681 -117.873557 41 60ft 0kts
02-Apr-18 18:17 33.665681 -117.873557 41 60ft 0kts
02-Apr-18 18:18 33.665681 -117.873557 41 60ft 0kts
02-Apr-18 18:19 33.665681 -117.873557 41 60ft 0kts
02-Apr-18 18:20 33.665681 -117.873557 41 60ft 0kts
02-Apr-18 18:21 33.667320 -117.872917 341 60ft 6kts
02-Apr-18 18:22 33.669821 -117.874033 26 60ft 16kts
02-Apr-18 18:23 33.674181 -117.871271 27 60ft 18kts
02-Apr-18 18:24 33.678634 -117.868454 26 60ft 17kts
02-Apr-18 18:25 33.681198 -117.866403 120 60ft 0kts
02-Apr-18 18:26 33.679259 -117.866572 208 60ft 67kts
02-Apr-18 18:27 33.659935 -117.895912 251 1343ft 122kts
02-Apr-18 18:28 33.647692 -117.934504 251 2504ft 132kts
02-Apr-18 18:29 33.631944 -117.984918 251 2380ft 168kts
02-Apr-18 18:30 33.619420 -118.036670 283 2361ft 157kts
02-Apr-18 18:31 33.631973 -118.081737 287 3318ft 146kts
02-Apr-18 18:32 33.656524 -118.120591 304 4418ft 149kts
02-Apr-18 18:33 33.683967 -118.164458 304 4464ft 170kts
02-Apr-18 18:34 33.712345 -118.209623 304 4474ft 173kts
02-Apr-18 18:35 33.742343 -118.252912 312 4487ft 167kts
02-Apr-18 18:36 33.776948 -118.287017 321 4489ft 164kts
02-Apr-18 18:37 33.809807 -118.313287 324 4487ft 165kts
02-Apr-18 18:38 33.847840 -118.337488 332 4490ft 170kts
02-Apr-18 18:39 33.888014 -118.362751 327 4479ft 146kts
02-Apr-18 18:40 33.921265 -118.386753 324 4489ft 142kts
02-Apr-18 18:41 33.954137 -118.411825 323 4489ft 143kts
02-Apr-18 18:42 33.985895 -118.439478 311 4491ft 143kts
02-Apr-18 18:43 34.014621 -118.475978 311 4491ft 161kts
02-Apr-18 18:44 34.045913 -118.515957 311 4493ft 167kts
02-Apr-18 18:45 34.074888 -118.553251 309 4881ft 161kts
02-Apr-18 18:46 34.105769 -118.593171 311 4915ft 164kts
02-Apr-18 18:47 34.134138 -118.629401 310 5968ft 150kts
02-Apr-18 18:48 34.162313 -118.665943 311 6982ft 155kts
02-Apr-18 18:49 34.191507 -118.703611 311 8030ft 157kts
02-Apr-18 18:50 34.223106 -118.744613 311 8454ft 180kts
02-Apr-18 18:51 34.257166 -118.788639 311 8452ft 186kts
02-Apr-18 18:52 34.292226 -118.834039 311 8478ft 185kts
02-Apr-18 18:53 34.326012 -118.877917 311 8479ft 182kts
02-Apr-18 18:54 34.360394 -118.922621 311 8479ft 181kts
02-Apr-18 18:55 34.393805 -118.966013 309 8479ft 175kts
02-Apr-18 18:56 34.425843 -119.007949 311 8531ft 175kts
02-Apr-18 18:57 34.458410 -119.050414 311 8533ft 178kts
02-Apr-18 18:58 34.491934 -119.094208 311 8533ft 178kts
02-Apr-18 18:59 34.525232 -119.137769 311 8533ft 179kts
02-Apr-18 19:00 34.558507 -119.181360 311 8533ft 179kts
02-Apr-18 19:01 34.592349 -119.225789 311 8486ft 182kts
02-Apr-18 19:02 34.625139 -119.269019 310 8531ft 178kts
02-Apr-18 19:03 34.658764 -119.313506 313 8533ft 180kts
02-Apr-18 19:04 34.692989 -119.358400 312 8533ft 182kts
02-Apr-18 19:05 34.727479 -119.403864 312 8533ft 183kts
02-Apr-18 19:06 34.762070 -119.449527 312 8479ft 183kts
02-Apr-18 19:07 34.796665 -119.495279 312 8195ft 192kts
02-Apr-18 19:08 34.827692 -119.536367 313 7052ft 181kts
02-Apr-18 19:09 34.861104 -119.580626 313 5670ft 180kts
02-Apr-18 19:10 34.895098 -119.625677 313 4108ft 179kts
02-Apr-18 19:11 34.925740 -119.666158 310 3508ft 138kts
02-Apr-18 19:12 34.946827 -119.698182 262 3557ft 106kts
02-Apr-18 19:13 34.922412 -119.684683 121 3111ft 137kts
02-Apr-18 19:14 34.930845 -119.664569 305 2599ft 83kts
02-Apr-18 19:15 34.940298 -119.686426 295 2173ft 47kts
02-Apr-18 19:16 34.942376 -119.690584 227 2154ft 0kts
02-Apr-18 19:17 34.942376 -119.690584 227 2154ft 0kts
02-Apr-18 19:18 34.942376 -119.690584 227 2154ft 0kts
02-Apr-18 19:19 34.942376 -119.690584 227 2154ft 0kts
02-Apr-18 19:20 34.942376 -119.690584 227 2154ft 0kts
02-Apr-18 19:21 34.942376 -119.690584 227 2154ft 0kts
02-Apr-18 19:22 34.942376 -119.690584 227 2154ft 0kts
02-Apr-18 19:23 34.942376 -119.690584 227 2154ft 0kts
02-Apr-18 19:24 34.942376 -119.690584 227 2154ft 0kts
02-Apr-18 19:25 34.942376 -119.690584 227 2154ft 0kts
02-Apr-18 19:26 34.942376 -119.690584 227 2154ft 0kts
02-Apr-18 19:27 34.942376 -119.690584 227 2154ft 0kts
02-Apr-18 19:28 34.942376 -119.690584 227 2154ft 0kts
02-Apr-18 19:29 34.942376 -119.690584 227 2154ft 0kts
02-Apr-18 19:30 34.942376 -119.690584 227 2154ft 0kts

Navigation Log

Ident Type
Flight plan parsing failed, navigation log unavailable